Palmdale, Minnesota
Current Conditions -  °F | °C
As of 10:55 AM on Wednesday 22 Oct 2014 (Local Time) from KOEO Reporting Station
Clear Clear  
Wind Chill: 44°   Ceiling: Unl
Heat Index: 49°   Visibility: 10mi
Dew Point: 39°   Wind: 14mph
Humidity: 69%   Direction: 140°SE
Pressure: 30.23"   Gusts: 21mph
Location:  45.4629°N, 92.7113°W
Report Text: KOEO 221555Z AUTO 14012G18KT 10SM CLR 10/04 A3023 RMK AO2 T00950041
Loading
Personal Weather Stations






























Interactive Weather Map
Tropical Storm Tracking
New forecast layout! Learn more

10-Day Weather Forecast

Advertisements
Track Severe Weather on mobile